sensor_id;sensor_type;location;lat;lon;timestamp;temperature;humidity
13446;DHT22;6795;51.232;3.764;2023-02-28T00:01:29;0.50;99.90
13446;DHT22;6795;51.232;3.764;2023-02-28T00:03:58;0.50;99.90
13446;DHT22;6795;51.232;3.764;2023-02-28T00:06:27;0.40;99.90
13446;DHT22;6795;51.232;3.764;2023-02-28T00:08:57;0.20;99.90
13446;DHT22;6795;51.232;3.764;2023-02-28T00:11:25;-0.10;99.90
13446;DHT22;6795;51.232;3.764;2023-02-28T00:13:54;-0.20;99.90
13446;DHT22;6795;51.232;3.764;2023-02-28T00:16:23;0.00;99.90
13446;DHT22;6795;51.232;3.764;2023-02-28T00:18:52;0.10;99.90
13446;DHT22;6795;51.232;3.764;2023-02-28T00:21:20;0.20;99.90
13446;DHT22;6795;51.232;3.764;2023-02-28T00:23:49;0.40;99.90
13446;DHT22;6795;51.232;3.764;2023-02-28T00:26:19;0.30;99.90
13446;DHT22;6795;51.232;3.764;2023-02-28T00:28:48;0.20;99.90
13446;DHT22;6795;51.232;3.764;2023-02-28T00:31:16;0.20;99.90
13446;DHT22;6795;51.232;3.764;2023-02-28T00:33:45;0.50;99.90
13446;DHT22;6795;51.232;3.764;2023-02-28T00:36:13;0.60;99.90
13446;DHT22;6795;51.232;3.764;2023-02-28T00:38:42;0.70;99.90
13446;DHT22;6795;51.232;3.764;2023-02-28T00:41:10;0.90;99.90
13446;DHT22;6795;51.232;3.764;2023-02-28T00:43:40;1.00;99.90
13446;DHT22;6795;51.232;3.764;2023-02-28T00:46:09;1.00;99.90
13446;DHT22;6795;51.232;3.764;2023-02-28T00:48:38;1.20;99.90
13446;DHT22;6795;51.232;3.764;2023-02-28T00:51:06;1.20;99.90
13446;DHT22;6795;51.232;3.764;2023-02-28T00:53:35;1.40;99.90
13446;DHT22;6795;51.232;3.764;2023-02-28T00:56:03;1.30;99.90
13446;DHT22;6795;51.232;3.764;2023-02-28T00:58:32;1.10;99.90
13446;DHT22;6795;51.232;3.764;2023-02-28T01:01:02;1.00;99.90
13446;DHT22;6795;51.232;3.764;2023-02-28T01:03:31;0.80;99.90
13446;DHT22;6795;51.232;3.764;2023-02-28T01:05:59;0.80;99.90
13446;DHT22;6795;51.232;3.764;2023-02-28T01:08:28;0.90;99.90
13446;DHT22;6795;51.232;3.764;2023-02-28T01:10:57;0.90;99.90
13446;DHT22;6795;51.232;3.764;2023-02-28T01:13:25;0.90;99.90
13446;DHT22;6795;51.232;3.764;2023-02-28T01:15:55;0.90;99.90
13446;DHT22;6795;51.232;3.764;2023-02-28T01:18:26;0.90;99.90
13446;DHT22;6795;51.232;3.764;2023-02-28T01:20:54;1.00;99.90
13446;DHT22;6795;51.232;3.764;2023-02-28T01:23:23;1.00;99.90
13446;DHT22;6795;51.232;3.764;2023-02-28T01:25:52;1.00;99.90
13446;DHT22;6795;51.232;3.764;2023-02-28T01:28:21;0.90;99.90
13446;DHT22;6795;51.232;3.764;2023-02-28T01:30:50;0.80;99.90
13446;DHT22;6795;51.232;3.764;2023-02-28T01:33:19;0.60;99.90
13446;DHT22;6795;51.232;3.764;2023-02-28T01:35:49;0.40;99.90
13446;DHT22;6795;51.232;3.764;2023-02-28T01:38:17;0.30;99.90
13446;DHT22;6795;51.232;3.764;2023-02-28T01:40:49;0.30;99.90
13446;DHT22;6795;51.232;3.764;2023-02-28T01:43:22;0.40;99.90
13446;DHT22;6795;51.232;3.764;2023-02-28T01:45:53;0.50;99.90
13446;DHT22;6795;51.232;3.764;2023-02-28T01:48:25;0.50;99.90
13446;DHT22;6795;51.232;3.764;2023-02-28T01:50:59;0.40;99.90
13446;DHT22;6795;51.232;3.764;2023-02-28T01:53:32;0.20;99.90
13446;DHT22;6795;51.232;3.764;2023-02-28T01:56:04;0.00;99.90
13446;DHT22;6795;51.232;3.764;2023-02-28T01:58:35;-0.10;99.90
13446;DHT22;6795;51.232;3.764;2023-02-28T02:01:04;-0.10;99.90
13446;DHT22;6795;51.232;3.764;2023-02-28T02:03:35;-0.10;99.90
13446;DHT22;6795;51.232;3.764;2023-02-28T02:06:06;-0.10;99.90
13446;DHT22;6795;51.232;3.764;2023-02-28T02:08:34;-0.20;99.90
13446;DHT22;6795;51.232;3.764;2023-02-28T02:11:07;-0.20;99.90
13446;DHT22;6795;51.232;3.764;2023-02-28T02:13:50;-0.20;99.90
13446;DHT22;6795;51.232;3.764;2023-02-28T02:16:37;0.00;99.90
13446;DHT22;6795;51.232;3.764;2023-02-28T02:19:29;0.30;99.90
13446;DHT22;6795;51.232;3.764;2023-02-28T02:22:18;0.50;99.90
13446;DHT22;6795;51.232;3.764;2023-02-28T02:25:03;0.50;99.90
13446;DHT22;6795;51.232;3.764;2023-02-28T02:27:55;0.40;99.90
13446;DHT22;6795;51.232;3.764;2023-02-28T02:30:50;0.30;99.90
13446;DHT22;6795;51.232;3.764;2023-02-28T02:36:29;0.50;99.90
13446;DHT22;6795;51.232;3.764;2023-02-28T02:39:04;0.70;99.90
13446;DHT22;6795;51.232;3.764;2023-02-28T02:41:36;0.80;99.90
13446;DHT22;6795;51.232;3.764;2023-02-28T02:44:12;0.70;99.90
13446;DHT22;6795;51.232;3.764;2023-02-28T02:46:43;0.70;99.90
13446;DHT22;6795;51.232;3.764;2023-02-28T02:49:17;0.80;99.90
13446;DHT22;6795;51.232;3.764;2023-02-28T02:51:50;0.80;99.90
13446;DHT22;6795;51.232;3.764;2023-02-28T02:54:22;0.80;99.90
13446;DHT22;6795;51.232;3.764;2023-02-28T02:56:51;0.90;99.90
13446;DHT22;6795;51.232;3.764;2023-02-28T02:59:21;1.00;99.90
13446;DHT22;6795;51.232;3.764;2023-02-28T03:01:53;1.00;99.90
13446;DHT22;6795;51.232;3.764;2023-02-28T03:04:26;1.10;99.90
13446;DHT22;6795;51.232;3.764;2023-02-28T03:06:57;1.10;99.90
13446;DHT22;6795;51.232;3.764;2023-02-28T03:09:27;1.20;99.90
13446;DHT22;6795;51.232;3.764;2023-02-28T03:11:56;1.30;99.90
13446;DHT22;6795;51.232;3.764;2023-02-28T03:14:40;1.50;99.90
13446;DHT22;6795;51.232;3.764;2023-02-28T03:17:29;1.60;99.90
13446;DHT22;6795;51.232;3.764;2023-02-28T03:20:06;1.70;99.90
13446;DHT22;6795;51.232;3.764;2023-02-28T03:22:46;1.70;99.90
13446;DHT22;6795;51.232;3.764;2023-02-28T03:25:25;1.80;99.90
13446;DHT22;6795;51.232;3.764;2023-02-28T03:28:00;1.70;99.90
13446;DHT22;6795;51.232;3.764;2023-02-28T03:30:39;1.70;99.90
13446;DHT22;6795;51.232;3.764;2023-02-28T03:33:12;1.80;99.90
13446;DHT22;6795;51.232;3.764;2023-02-28T03:35:44;1.80;99.90
13446;DHT22;6795;51.232;3.764;2023-02-28T03:38:20;1.90;99.90
13446;DHT22;6795;51.232;3.764;2023-02-28T03:40:55;2.00;99.90
13446;DHT22;6795;51.232;3.764;2023-02-28T03:43:30;2.00;99.90
13446;DHT22;6795;51.232;3.764;2023-02-28T03:46:05;2.10;99.90
13446;DHT22;6795;51.232;3.764;2023-02-28T03:48:39;2.10;99.90
13446;DHT22;6795;51.232;3.764;2023-02-28T03:51:12;2.20;99.90
13446;DHT22;6795;51.232;3.764;2023-02-28T03:53:46;2.30;99.90
13446;DHT22;6795;51.232;3.764;2023-02-28T03:56:17;2.20;99.90
13446;DHT22;6795;51.232;3.764;2023-02-28T03:58:51;2.20;99.90
13446;DHT22;6795;51.232;3.764;2023-02-28T04:01:26;2.20;99.90
13446;DHT22;6795;51.232;3.764;2023-02-28T04:03:58;2.20;99.90
13446;DHT22;6795;51.232;3.764;2023-02-28T04:06:27;2.20;99.90
13446;DHT22;6795;51.232;3.764;2023-02-28T04:09:00;2.20;99.90
13446;DHT22;6795;51.232;3.764;2023-02-28T04:11:33;2.30;99.90
13446;DHT22;6795;51.232;3.764;2023-02-28T04:14:05;2.40;99.90
13446;DHT22;6795;51.232;3.764;2023-02-28T04:16:36;2.40;99.90
13446;DHT22;6795;51.232;3.764;2023-02-28T04:19:06;2.40;99.90
13446;DHT22;6795;51.232;3.764;2023-02-28T04:21:40;2.50;99.90
13446;DHT22;6795;51.232;3.764;2023-02-28T04:24:22;2.50;99.90
13446;DHT22;6795;51.232;3.764;2023-02-28T04:26:53;2.50;99.90
13446;DHT22;6795;51.232;3.764;2023-02-28T04:29:24;2.60;99.90
13446;DHT22;6795;51.232;3.764;2023-02-28T04:31:53;2.70;99.90
13446;DHT22;6795;51.232;3.764;2023-02-28T04:34:23;2.70;99.90
13446;DHT22;6795;51.232;3.764;2023-02-28T04:36:52;2.70;99.90
13446;DHT22;6795;51.232;3.764;2023-02-28T04:39:40;2.70;99.90
13446;DHT22;6795;51.232;3.764;2023-02-28T04:42:09;2.70;99.90
13446;DHT22;6795;51.232;3.764;2023-02-28T04:44:37;2.80;99.90
13446;DHT22;6795;51.232;3.764;2023-02-28T04:47:06;2.80;99.90
13446;DHT22;6795;51.232;3.764;2023-02-28T04:49:34;2.70;99.90
13446;DHT22;6795;51.232;3.764;2023-02-28T04:52:03;2.70;99.90
13446;DHT22;6795;51.232;3.764;2023-02-28T04:54:32;2.80;99.90
13446;DHT22;6795;51.232;3.764;2023-02-28T04:57:02;2.80;99.90
13446;DHT22;6795;51.232;3.764;2023-02-28T04:59:31;2.90;99.90
13446;DHT22;6795;51.232;3.764;2023-02-28T05:02:00;2.90;99.90
13446;DHT22;6795;51.232;3.764;2023-02-28T05:04:34;3.00;99.90
13446;DHT22;6795;51.232;3.764;2023-02-28T05:07:03;3.00;99.90
13446;DHT22;6795;51.232;3.764;2023-02-28T05:09:32;3.00;99.90
13446;DHT22;6795;51.232;3.764;2023-02-28T05:12:03;3.00;99.90
13446;DHT22;6795;51.232;3.764;2023-02-28T05:14:32;3.00;99.90
13446;DHT22;6795;51.232;3.764;2023-02-28T05:17:00;3.10;99.90
13446;DHT22;6795;51.232;3.764;2023-02-28T05:19:29;3.10;99.90
13446;DHT22;6795;51.232;3.764;2023-02-28T05:21:57;3.10;99.90
13446;DHT22;6795;51.232;3.764;2023-02-28T05:24:27;3.20;99.90
13446;DHT22;6795;51.232;3.764;2023-02-28T05:26:55;3.20;99.90
13446;DHT22;6795;51.232;3.764;2023-02-28T05:29:25;3.20;99.90
13446;DHT22;6795;51.232;3.764;2023-02-28T05:31:53;3.20;99.90
13446;DHT22;6795;51.232;3.764;2023-02-28T05:34:22;3.20;99.90
13446;DHT22;6795;51.232;3.764;2023-02-28T05:36:50;3.20;99.90
13446;DHT22;6795;51.232;3.764;2023-02-28T05:39:19;3.20;99.90
13446;DHT22;6795;51.232;3.764;2023-02-28T05:41:48;3.20;99.90
13446;DHT22;6795;51.232;3.764;2023-02-28T05:44:16;3.20;99.90
13446;DHT22;6795;51.232;3.764;2023-02-28T05:46:46;3.20;99.90
13446;DHT22;6795;51.232;3.764;2023-02-28T05:49:16;3.20;99.90
13446;DHT22;6795;51.232;3.764;2023-02-28T05:51:44;3.20;99.90
13446;DHT22;6795;51.232;3.764;2023-02-28T05:54:12;3.10;99.90
13446;DHT22;6795;51.232;3.764;2023-02-28T05:56:41;3.10;99.90
13446;DHT22;6795;51.232;3.764;2023-02-28T05:59:11;3.10;99.90
13446;DHT22;6795;51.232;3.764;2023-02-28T06:01:41;3.10;99.90
13446;DHT22;6795;51.232;3.764;2023-02-28T06:04:18;3.10;99.90
13446;DHT22;6795;51.232;3.764;2023-02-28T06:06:58;3.10;99.90
13446;DHT22;6795;51.232;3.764;2023-02-28T06:09:26;3.00;99.90
13446;DHT22;6795;51.232;3.764;2023-02-28T06:11:57;3.00;99.90
13446;DHT22;6795;51.232;3.764;2023-02-28T06:14:25;3.00;99.90
13446;DHT22;6795;51.232;3.764;2023-02-28T06:16:54;3.00;99.90
13446;DHT22;6795;51.232;3.764;2023-02-28T06:19:26;3.00;99.90
13446;DHT22;6795;51.232;3.764;2023-02-28T06:21:56;3.00;99.90
13446;DHT22;6795;51.232;3.764;2023-02-28T06:24:26;3.00;99.90
13446;DHT22;6795;51.232;3.764;2023-02-28T06:26:56;3.00;99.90
13446;DHT22;6795;51.232;3.764;2023-02-28T06:29:25;2.90;99.90
13446;DHT22;6795;51.232;3.764;2023-02-28T06:31:54;2.90;99.90
13446;DHT22;6795;51.232;3.764;2023-02-28T06:34:22;3.00;99.90
13446;DHT22;6795;51.232;3.764;2023-02-28T06:36:52;3.00;99.90
13446;DHT22;6795;51.232;3.764;2023-02-28T06:39:20;3.10;99.90
13446;DHT22;6795;51.232;3.764;2023-02-28T06:41:49;3.10;99.90
13446;DHT22;6795;51.232;3.764;2023-02-28T06:44:23;3.00;99.90
13446;DHT22;6795;51.232;3.764;2023-02-28T06:46:51;3.10;99.90
13446;DHT22;6795;51.232;3.764;2023-02-28T06:49:20;3.10;99.90
13446;DHT22;6795;51.232;3.764;2023-02-28T06:51:49;3.00;99.90
13446;DHT22;6795;51.232;3.764;2023-02-28T06:54:18;3.00;99.90
13446;DHT22;6795;51.232;3.764;2023-02-28T06:56:47;2.90;99.90
13446;DHT22;6795;51.232;3.764;2023-02-28T06:59:15;2.80;99.90
13446;DHT22;6795;51.232;3.764;2023-02-28T07:01:44;2.80;99.90
13446;DHT22;6795;51.232;3.764;2023-02-28T07:04:13;2.70;99.90
13446;DHT22;6795;51.232;3.764;2023-02-28T07:06:41;2.60;99.90
13446;DHT22;6795;51.232;3.764;2023-02-28T07:09:09;2.60;99.90
13446;DHT22;6795;51.232;3.764;2023-02-28T07:11:40;2.50;99.90
13446;DHT22;6795;51.232;3.764;2023-02-28T07:14:09;2.40;99.90
13446;DHT22;6795;51.232;3.764;2023-02-28T07:16:38;2.40;99.90
13446;DHT22;6795;51.232;3.764;2023-02-28T07:19:06;2.40;99.90
13446;DHT22;6795;51.232;3.764;2023-02-28T07:21:35;2.40;99.90
13446;DHT22;6795;51.232;3.764;2023-02-28T07:24:04;2.40;99.90
13446;DHT22;6795;51.232;3.764;2023-02-28T07:26:32;2.40;99.90
13446;DHT22;6795;51.232;3.764;2023-02-28T07:29:04;2.40;99.90
13446;DHT22;6795;51.232;3.764;2023-02-28T07:31:33;2.40;99.90
13446;DHT22;6795;51.232;3.764;2023-02-28T07:34:02;2.40;99.90
13446;DHT22;6795;51.232;3.764;2023-02-28T07:36:30;2.40;99.90
13446;DHT22;6795;51.232;3.764;2023-02-28T07:38:59;2.40;99.90
13446;DHT22;6795;51.232;3.764;2023-02-28T07:41:28;2.40;99.90
13446;DHT22;6795;51.232;3.764;2023-02-28T07:43:57;2.50;99.90
13446;DHT22;6795;51.232;3.764;2023-02-28T07:46:29;2.50;99.90
13446;DHT22;6795;51.232;3.764;2023-02-28T07:49:03;2.50;99.90
13446;DHT22;6795;51.232;3.764;2023-02-28T07:51:32;2.60;99.90
13446;DHT22;6795;51.232;3.764;2023-02-28T07:54:00;2.60;99.90
13446;DHT22;6795;51.232;3.764;2023-02-28T07:56:28;2.60;99.90
13446;DHT22;6795;51.232;3.764;2023-02-28T07:58:57;2.60;99.90
13446;DHT22;6795;51.232;3.764;2023-02-28T08:01:26;2.60;99.90
13446;DHT22;6795;51.232;3.764;2023-02-28T08:03:57;2.70;99.90
13446;DHT22;6795;51.232;3.764;2023-02-28T08:06:26;2.70;99.90
13446;DHT22;6795;51.232;3.764;2023-02-28T08:08:54;2.70;99.90
13446;DHT22;6795;51.232;3.764;2023-02-28T08:11:24;2.80;99.90
13446;DHT22;6795;51.232;3.764;2023-02-28T08:13:54;2.80;99.90
13446;DHT22;6795;51.232;3.764;2023-02-28T08:16:23;2.90;99.90
13446;DHT22;6795;51.232;3.764;2023-02-28T08:18:52;3.00;99.90
13446;DHT22;6795;51.232;3.764;2023-02-28T08:21:22;3.00;99.90
13446;DHT22;6795;51.232;3.764;2023-02-28T08:23:51;3.10;99.90
13446;DHT22;6795;51.232;3.764;2023-02-28T08:26:20;3.20;99.90
13446;DHT22;6795;51.232;3.764;2023-02-28T08:28:49;3.30;99.90
13446;DHT22;6795;51.232;3.764;2023-02-28T08:31:18;3.30;99.90
13446;DHT22;6795;51.232;3.764;2023-02-28T08:33:46;3.40;99.90
13446;DHT22;6795;51.232;3.764;2023-02-28T08:36:19;3.40;99.90
13446;DHT22;6795;51.232;3.764;2023-02-28T08:38:49;3.50;99.90
13446;DHT22;6795;51.232;3.764;2023-02-28T08:41:18;3.40;99.90
13446;DHT22;6795;51.232;3.764;2023-02-28T08:43:46;3.50;99.90
13446;DHT22;6795;51.232;3.764;2023-02-28T08:46:14;3.50;99.90
13446;DHT22;6795;51.232;3.764;2023-02-28T08:48:43;3.50;99.90
13446;DHT22;6795;51.232;3.764;2023-02-28T08:51:13;3.50;99.90
13446;DHT22;6795;51.232;3.764;2023-02-28T08:53:43;3.50;99.90
13446;DHT22;6795;51.232;3.764;2023-02-28T08:56:14;3.50;99.90
13446;DHT22;6795;51.232;3.764;2023-02-28T08:58:44;3.50;99.90
13446;DHT22;6795;51.232;3.764;2023-02-28T09:01:14;3.60;99.90
13446;DHT22;6795;51.232;3.764;2023-02-28T09:03:44;3.60;99.90
13446;DHT22;6795;51.232;3.764;2023-02-28T09:06:15;3.70;99.90
13446;DHT22;6795;51.232;3.764;2023-02-28T09:08:43;3.80;99.90
13446;DHT22;6795;51.232;3.764;2023-02-28T09:11:14;3.90;99.90
13446;DHT22;6795;51.232;3.764;2023-02-28T09:13:43;4.00;99.90
13446;DHT22;6795;51.232;3.764;2023-02-28T09:16:13;4.00;99.90
13446;DHT22;6795;51.232;3.764;2023-02-28T09:18:43;4.10;99.90
13446;DHT22;6795;51.232;3.764;2023-02-28T09:21:14;4.00;99.90
13446;DHT22;6795;51.232;3.764;2023-02-28T09:23:44;4.10;99.90
13446;DHT22;6795;51.232;3.764;2023-02-28T09:26:16;4.10;99.90
13446;DHT22;6795;51.232;3.764;2023-02-28T09:28:45;4.00;99.90
13446;DHT22;6795;51.232;3.764;2023-02-28T09:31:15;4.20;99.90
13446;DHT22;6795;51.232;3.764;2023-02-28T09:33:49;4.20;99.90
13446;DHT22;6795;51.232;3.764;2023-02-28T09:36:21;4.20;99.90
13446;DHT22;6795;51.232;3.764;2023-02-28T09:39:00;4.30;99.90
13446;DHT22;6795;51.232;3.764;2023-02-28T09:41:37;4.30;99.90
13446;DHT22;6795;51.232;3.764;2023-02-28T09:44:09;4.30;99.90
13446;DHT22;6795;51.232;3.764;2023-02-28T09:46:44;4.20;99.90
13446;DHT22;6795;51.232;3.764;2023-02-28T09:49:16;4.10;99.90
13446;DHT22;6795;51.232;3.764;2023-02-28T09:51:53;4.30;99.90
13446;DHT22;6795;51.232;3.764;2023-02-28T09:54:28;4.40;99.90
13446;DHT22;6795;51.232;3.764;2023-02-28T09:57:06;4.50;99.90
13446;DHT22;6795;51.232;3.764;2023-02-28T09:59:55;4.50;99.90
13446;DHT22;6795;51.232;3.764;2023-02-28T10:02:52;4.50;99.90
13446;DHT22;6795;51.232;3.764;2023-02-28T10:05:27;4.40;99.90
13446;DHT22;6795;51.232;3.764;2023-02-28T10:08:05;4.30;99.90
13446;DHT22;6795;51.232;3.764;2023-02-28T10:10:39;4.40;99.90
13446;DHT22;6795;51.232;3.764;2023-02-28T10:13:20;4.30;99.90
13446;DHT22;6795;51.232;3.764;2023-02-28T10:15:53;4.20;99.90
13446;DHT22;6795;51.232;3.764;2023-02-28T10:18:26;4.20;99.90
13446;DHT22;6795;51.232;3.764;2023-02-28T10:20:56;4.20;99.90
13446;DHT22;6795;51.232;3.764;2023-02-28T10:23:27;4.30;99.90
13446;DHT22;6795;51.232;3.764;2023-02-28T10:25:59;4.30;99.20
13446;DHT22;6795;51.232;3.764;2023-02-28T10:28:31;4.30;99.60
13446;DHT22;6795;51.232;3.764;2023-02-28T10:31:00;4.40;99.20
13446;DHT22;6795;51.232;3.764;2023-02-28T10:33:31;4.40;98.80
13446;DHT22;6795;51.232;3.764;2023-02-28T10:36:03;4.60;99.20
13446;DHT22;6795;51.232;3.764;2023-02-28T10:38:35;4.80;99.40
13446;DHT22;6795;51.232;3.764;2023-02-28T10:41:06;4.80;97.90
13446;DHT22;6795;51.232;3.764;2023-02-28T10:43:37;4.80;96.40
13446;DHT22;6795;51.232;3.764;2023-02-28T10:48:44;5.00;96.50
13446;DHT22;6795;51.232;3.764;2023-02-28T10:51:16;5.00;95.60
13446;DHT22;6795;51.232;3.764;2023-02-28T10:53:48;5.10;96.10
13446;DHT22;6795;51.232;3.764;2023-02-28T10:56:28;5.30;96.40
13446;DHT22;6795;51.232;3.764;2023-02-28T10:59:01;5.40;95.00
13446;DHT22;6795;51.232;3.764;2023-02-28T11:01:38;5.30;92.90
13446;DHT22;6795;51.232;3.764;2023-02-28T11:04:35;5.20;93.40
13446;DHT22;6795;51.232;3.764;2023-02-28T11:07:16;5.30;94.90
13446;DHT22;6795;51.232;3.764;2023-02-28T11:09:50;5.30;93.30
13446;DHT22;6795;51.232;3.764;2023-02-28T11:12:22;5.50;94.40
13446;DHT22;6795;51.232;3.764;2023-02-28T11:14:57;5.80;94.60
13446;DHT22;6795;51.232;3.764;2023-02-28T11:17:28;6.10;95.10
13446;DHT22;6795;51.232;3.764;2023-02-28T11:19:58;6.50;94.00
13446;DHT22;6795;51.232;3.764;2023-02-28T11:22:32;6.80;93.20
13446;DHT22;6795;51.232;3.764;2023-02-28T11:25:08;7.20;91.40
13446;DHT22;6795;51.232;3.764;2023-02-28T11:27:46;7.00;92.00
13446;DHT22;6795;51.232;3.764;2023-02-28T11:30:32;7.00;91.00
13446;DHT22;6795;51.232;3.764;2023-02-28T11:33:20;7.30;91.80
13446;DHT22;6795;51.232;3.764;2023-02-28T11:35:52;7.30;92.00
13446;DHT22;6795;51.232;3.764;2023-02-28T11:38:20;7.30;90.10
13446;DHT22;6795;51.232;3.764;2023-02-28T11:41:03;7.40;90.70
13446;DHT22;6795;51.232;3.764;2023-02-28T11:43:44;7.40;89.50
13446;DHT22;6795;51.232;3.764;2023-02-28T11:46:26;7.50;90.60
13446;DHT22;6795;51.232;3.764;2023-02-28T11:49:10;7.50;87.20
13446;DHT22;6795;51.232;3.764;2023-02-28T11:51:47;7.10;88.60
13446;DHT22;6795;51.232;3.764;2023-02-28T11:54:35;7.40;90.00
13446;DHT22;6795;51.232;3.764;2023-02-28T11:57:24;7.20;87.10
13446;DHT22;6795;51.232;3.764;2023-02-28T12:00:02;7.30;88.30
13446;DHT22;6795;51.232;3.764;2023-02-28T12:02:41;7.50;87.30
13446;DHT22;6795;51.232;3.764;2023-02-28T12:05:23;7.60;85.30
13446;DHT22;6795;51.232;3.764;2023-02-28T12:08:03;7.10;85.90
13446;DHT22;6795;51.232;3.764;2023-02-28T12:10:37;6.60;85.40
13446;DHT22;6795;51.232;3.764;2023-02-28T12:13:17;6.70;90.40
13446;DHT22;6795;51.232;3.764;2023-02-28T12:16:00;7.10;88.90
13446;DHT22;6795;51.232;3.764;2023-02-28T12:18:54;7.30;90.20
13446;DHT22;6795;51.232;3.764;2023-02-28T12:21:33;7.60;85.80
13446;DHT22;6795;51.232;3.764;2023-02-28T12:24:25;7.40;82.70
13446;DHT22;6795;51.232;3.764;2023-02-28T12:26:58;7.30;86.30
13446;DHT22;6795;51.232;3.764;2023-02-28T12:29:32;7.50;84.80
13446;DHT22;6795;51.232;3.764;2023-02-28T12:32:06;7.60;85.70
13446;DHT22;6795;51.232;3.764;2023-02-28T12:34:43;7.80;85.90
13446;DHT22;6795;51.232;3.764;2023-02-28T12:37:19;7.60;81.30
13446;DHT22;6795;51.232;3.764;2023-02-28T12:39:54;7.60;81.30
13446;DHT22;6795;51.232;3.764;2023-02-28T12:42:27;7.60;82.20
13446;DHT22;6795;51.232;3.764;2023-02-28T12:44:59;7.70;80.30
13446;DHT22;6795;51.232;3.764;2023-02-28T12:47:29;7.90;81.60
13446;DHT22;6795;51.232;3.764;2023-02-28T12:50:03;8.30;81.00
13446;DHT22;6795;51.232;3.764;2023-02-28T12:52:35;8.30;76.90
13446;DHT22;6795;51.232;3.764;2023-02-28T12:55:11;7.90;81.40
13446;DHT22;6795;51.232;3.764;2023-02-28T12:57:48;8.10;77.90
13446;DHT22;6795;51.232;3.764;2023-02-28T13:00:21;8.10;77.70
13446;DHT22;6795;51.232;3.764;2023-02-28T13:03:27;8.00;78.10
13446;DHT22;6795;51.232;3.764;2023-02-28T13:06:17;8.00;75.50
13446;DHT22;6795;51.232;3.764;2023-02-28T13:09:08;8.20;75.50
13446;DHT22;6795;51.232;3.764;2023-02-28T13:11:43;8.10;77.10
13446;DHT22;6795;51.232;3.764;2023-02-28T13:14:24;8.10;73.20
13446;DHT22;6795;51.232;3.764;2023-02-28T13:16:57;8.10;74.60
13446;DHT22;6795;51.232;3.764;2023-02-28T13:19:29;8.00;74.60
13446;DHT22;6795;51.232;3.764;2023-02-28T13:22:01;8.30;74.30
13446;DHT22;6795;51.232;3.764;2023-02-28T13:24:42;8.40;71.20
13446;DHT22;6795;51.232;3.764;2023-02-28T13:27:32;8.20;72.60
13446;DHT22;6795;51.232;3.764;2023-02-28T13:30:02;8.20;72.10
13446;DHT22;6795;51.232;3.764;2023-02-28T13:33:21;8.20;71.00
13446;DHT22;6795;51.232;3.764;2023-02-28T13:38:54;7.70;69.00
13446;DHT22;6795;51.232;3.764;2023-02-28T13:41:55;7.70;69.70
13446;DHT22;6795;51.232;3.764;2023-02-28T13:44:23;7.80;70.40
13446;DHT22;6795;51.232;3.764;2023-02-28T13:47:23;7.90;72.10
13446;DHT22;6795;51.232;3.764;2023-02-28T13:49:52;8.00;68.90
13446;DHT22;6795;51.232;3.764;2023-02-28T13:52:23;7.90;69.20
13446;DHT22;6795;51.232;3.764;2023-02-28T13:55:01;8.10;71.20
13446;DHT22;6795;51.232;3.764;2023-02-28T13:57:42;8.00;67.40
13446;DHT22;6795;51.232;3.764;2023-02-28T14:00:23;8.00;69.00
13446;DHT22;6795;51.232;3.764;2023-02-28T14:03:09;8.00;70.80
13446;DHT22;6795;51.232;3.764;2023-02-28T14:05:39;8.00;70.30
13446;DHT22;6795;51.232;3.764;2023-02-28T14:08:13;8.00;69.80
13446;DHT22;6795;51.232;3.764;2023-02-28T14:10:48;8.00;68.70
13446;DHT22;6795;51.232;3.764;2023-02-28T14:13:42;7.90;69.70
13446;DHT22;6795;51.232;3.764;2023-02-28T14:16:15;8.00;69.60
13446;DHT22;6795;51.232;3.764;2023-02-28T14:18:50;8.00;69.30
13446;DHT22;6795;51.232;3.764;2023-02-28T14:21:23;8.20;68.80
13446;DHT22;6795;51.232;3.764;2023-02-28T14:24:22;8.20;68.80
13446;DHT22;6795;51.232;3.764;2023-02-28T14:30:24;7.90;66.80
13446;DHT22;6795;51.232;3.764;2023-02-28T14:33:03;8.00;69.30
13446;DHT22;6795;51.232;3.764;2023-02-28T14:35:47;7.80;70.60
13446;DHT22;6795;51.232;3.764;2023-02-28T14:38:21;7.90;70.50
13446;DHT22;6795;51.232;3.764;2023-02-28T14:40:54;8.00;71.00
13446;DHT22;6795;51.232;3.764;2023-02-28T14:43:26;7.90;68.00
13446;DHT22;6795;51.232;3.764;2023-02-28T14:45:58;7.90;69.00
13446;DHT22;6795;51.232;3.764;2023-02-28T14:48:27;8.00;70.50
13446;DHT22;6795;51.232;3.764;2023-02-28T14:50:57;8.20;71.00
13446;DHT22;6795;51.232;3.764;2023-02-28T14:53:29;8.20;71.00
13446;DHT22;6795;51.232;3.764;2023-02-28T14:55:58;8.10;68.70
13446;DHT22;6795;51.232;3.764;2023-02-28T14:58:31;8.10;70.90
13446;DHT22;6795;51.232;3.764;2023-02-28T15:01:02;7.80;69.60
13446;DHT22;6795;51.232;3.764;2023-02-28T15:03:33;7.60;70.40
13446;DHT22;6795;51.232;3.764;2023-02-28T15:06:05;7.50;70.20
13446;DHT22;6795;51.232;3.764;2023-02-28T15:08:34;7.70;70.50
13446;DHT22;6795;51.232;3.764;2023-02-28T15:11:06;7.70;70.80
13446;DHT22;6795;51.232;3.764;2023-02-28T15:13:41;7.60;70.40
13446;DHT22;6795;51.232;3.764;2023-02-28T15:16:13;7.40;70.20
13446;DHT22;6795;51.232;3.764;2023-02-28T15:18:47;7.20;71.30
13446;DHT22;6795;51.232;3.764;2023-02-28T15:21:18;7.00;70.80
13446;DHT22;6795;51.232;3.764;2023-02-28T15:23:51;6.90;73.40
13446;DHT22;6795;51.232;3.764;2023-02-28T15:26:23;6.90;71.00
13446;DHT22;6795;51.232;3.764;2023-02-28T15:28:59;6.80;72.40
13446;DHT22;6795;51.232;3.764;2023-02-28T15:31:31;6.80;75.10
13446;DHT22;6795;51.232;3.764;2023-02-28T15:34:20;6.80;75.10
13446;DHT22;6795;51.232;3.764;2023-02-28T15:36:54;6.60;73.70
13446;DHT22;6795;51.232;3.764;2023-02-28T15:39:26;6.30;74.50
13446;DHT22;6795;51.232;3.764;2023-02-28T15:42:12;6.10;74.40
13446;DHT22;6795;51.232;3.764;2023-02-28T15:44:42;6.00;76.10
13446;DHT22;6795;51.232;3.764;2023-02-28T15:47:17;5.90;75.60
13446;DHT22;6795;51.232;3.764;2023-02-28T15:49:49;5.90;76.30
13446;DHT22;6795;51.232;3.764;2023-02-28T15:52:22;5.80;76.10
13446;DHT22;6795;51.232;3.764;2023-02-28T15:54:52;5.80;76.60
13446;DHT22;6795;51.232;3.764;2023-02-28T15:57:23;5.70;76.30
13446;DHT22;6795;51.232;3.764;2023-02-28T15:59:56;5.60;77.20
13446;DHT22;6795;51.232;3.764;2023-02-28T16:02:31;5.60;78.60
13446;DHT22;6795;51.232;3.764;2023-02-28T16:05:20;5.50;76.80
13446;DHT22;6795;51.232;3.764;2023-02-28T16:07:55;5.50;79.40
13446;DHT22;6795;51.232;3.764;2023-02-28T16:12:55;5.50;78.20
13446;DHT22;6795;51.232;3.764;2023-02-28T16:15:27;5.50;80.50
13446;DHT22;6795;51.232;3.764;2023-02-28T16:17:57;5.50;79.80
13446;DHT22;6795;51.232;3.764;2023-02-28T16:20:27;5.50;80.00
13446;DHT22;6795;51.232;3.764;2023-02-28T16:22:56;5.40;81.20
13446;DHT22;6795;51.232;3.764;2023-02-28T16:25:34;5.40;80.30
13446;DHT22;6795;51.232;3.764;2023-02-28T16:28:03;5.40;80.60
13446;DHT22;6795;51.232;3.764;2023-02-28T16:30:33;5.30;80.70
13446;DHT22;6795;51.232;3.764;2023-02-28T16:33:01;5.30;81.00
13446;DHT22;6795;51.232;3.764;2023-02-28T16:35:30;5.30;82.00
13446;DHT22;6795;51.232;3.764;2023-02-28T16:37:58;5.20;82.50
13446;DHT22;6795;51.232;3.764;2023-02-28T16:40:27;5.20;81.40
13446;DHT22;6795;51.232;3.764;2023-02-28T16:42:58;5.10;82.80
13446;DHT22;6795;51.232;3.764;2023-02-28T16:45:29;5.10;83.50
13446;DHT22;6795;51.232;3.764;2023-02-28T16:47:58;5.00;84.60
13446;DHT22;6795;51.232;3.764;2023-02-28T16:50:30;4.90;84.80
13446;DHT22;6795;51.232;3.764;2023-02-28T16:52:59;4.90;84.10
13446;DHT22;6795;51.232;3.764;2023-02-28T16:55:28;4.80;83.90